Time;durP1;ratioP1;P1;durP2;ratioP2;P2;SDS_P1;SDS_P2;PMS_P1;PMS_P2;Temp;Humidity;BMP_temperature;BMP_pressure;BME280_temperature;BME280_humidity;BME280_pressure;Samples;Min_cycle;Max_cycle;Signal;HPM_P1;HPM_P2
2022/05/09 00:01:05;;;;;;;15.73;14.07;;;;;;;12.62;100.00;95519.75;4976367;28;20283;-57
2022/05/09 00:03:31;;;;;;;14.83;13.33;;;;;;;12.59;100.00;95526.03;4975120;28;20209;-56
2022/05/09 00:05:57;;;;;;;16.50;13.20;;;;;;;12.56;100.00;95524.91;4975302;28;20187;-60
2022/05/09 00:08:22;;;;;;;18.00;14.17;;;;;;;12.55;100.00;95519.84;4974748;28;20241;-60
2022/05/09 00:10:48;;;;;;;15.83;14.17;;;;;;;12.48;100.00;95525.41;4975471;28;20199;-61
2022/05/09 00:13:13;;;;;;;16.70;14.60;;;;;;;12.48;100.00;95522.66;4975069;28;20200;-60
2022/05/09 00:15:38;;;;;;;16.77;14.50;;;;;;;12.46;100.00;95522.31;4975401;28;20228;-60
2022/05/09 00:18:04;;;;;;;17.83;15.33;;;;;;;12.49;100.00;95518.72;4974664;28;20246;-59
2022/05/09 00:20:29;;;;;;;16.63;14.87;;;;;;;12.46;100.00;95522.31;4975309;28;20223;-61
2022/05/09 00:22:55;;;;;;;18.17;15.93;;;;;;;12.54;100.00;95512.81;4975176;28;20195;-58
2022/05/09 00:25:25;;;;;;;16.00;14.23;;;;;;;12.49;100.00;95516.00;4975032;28;20210;-58
2022/05/09 00:27:50;;;;;;;18.03;14.13;;;;;;;12.38;100.00;95520.84;4975226;28;20186;-59
2022/05/09 00:30:16;;;;;;;15.83;14.00;;;;;;;12.32;100.00;95517.03;4975621;28;20191;-57
2022/05/09 00:32:42;;;;;;;16.13;14.43;;;;;;;12.38;100.00;95520.84;4974709;28;20194;-58
2022/05/09 00:35:09;;;;;;;15.93;14.30;;;;;;;12.38;100.00;95520.84;4974471;28;20205;-58
2022/05/09 00:37:35;;;;;;;16.37;14.27;;;;;;;12.34;100.00;95520.13;4974547;28;20198;-66
2022/05/09 00:40:00;;;;;;;15.63;14.03;;;;;;;12.32;100.00;95527.97;4975126;28;20183;-67
2022/05/09 00:42:26;;;;;;;17.97;16.07;;;;;;;12.37;100.00;95519.28;4974704;28;20252;-61
2022/05/09 00:44:51;;;;;;;17.00;15.23;;;;;;;12.37;100.00;95522.03;4974681;28;20221;-62
2022/05/09 00:47:16;;;;;;;15.90;14.30;;;;;;;12.40;100.00;95519.28;4974517;28;20225;-62
2022/05/09 00:49:57;;;;;;;17.07;14.63;;;;;;;12.44;100.00;95524.69;4974409;28;20245;-61
2022/05/09 00:52:40;;;;;;;19.23;15.60;;;;;;;12.49;100.00;95514.03;4974468;28;20212;-62
2022/05/09 00:55:08;;;;;;;17.37;15.27;;;;;;;12.54;100.00;95515.56;4973710;28;20224;-61
2022/05/09 00:57:43;;;;;;;17.47;15.67;;;;;;;12.57;100.00;95507.28;4974403;28;20196;-66
2022/05/09 01:00:12;;;;;;;19.80;15.57;;;;;;;12.63;100.00;95511.13;4974376;28;20188;-60
2022/05/09 01:02:41;;;;;;;17.93;15.77;;;;;;;12.66;100.00;95504.03;4974212;28;20283;-59
2022/05/09 01:05:07;;;;;;;16.97;15.17;;;;;;;12.64;100.00;95509.16;4974265;28;20215;-60
2022/05/09 01:07:33;;;;;;;18.27;15.60;;;;;;;12.70;100.00;95510.22;4974586;28;20290;-60
2022/05/09 01:09:59;;;;;;;18.10;15.23;;;;;;;12.72;100.00;95508.63;4974832;28;20282;-60
2022/05/09 01:12:29;;;;;;;18.60;15.80;;;;;;;12.78;100.00;95506.19;4974484;28;20187;-60
2022/05/09 01:14:57;;;;;;;16.87;14.77;;;;;;;12.80;100.00;95506.56;4974071;28;20196;-68
2022/05/09 01:17:23;;;;;;;16.73;14.23;;;;;;;12.77;100.00;95510.13;4973738;28;20215;-62
2022/05/09 01:19:52;;;;;;;17.70;15.80;;;;;;;12.67;100.00;95500.09;4975133;28;20194;-54
2022/05/09 01:22:22;;;;;;;17.03;15.23;;;;;;;12.63;100.00;95510.31;4975001;28;20206;-55
2022/05/09 01:24:47;;;;;;;17.97;16.07;;;;;;;12.67;100.00;95500.09;4974104;28;20241;-54
2022/05/09 01:27:13;;;;;;;16.57;14.50;;;;;;;12.66;100.00;95506.75;4974622;28;20191;-55
2022/05/09 01:30:00;;;;;;;18.57;15.57;;;;;;;12.57;100.00;95501.03;4973843;28;20198;-54
2022/05/09 01:32:41;;;;;;;17.17;15.37;;;;;;;12.51;100.00;95500.72;4973736;28;20237;-55
2022/05/09 01:35:12;;;;;;;20.07;15.80;;;;;;;12.48;100.00;95500.75;4973959;28;20198;-66
2022/05/09 01:37:39;;;;;;;17.77;15.97;;;;;;;12.46;100.00;95494.94;4973823;28;20270;-59
2022/05/09 01:40:06;;;;;;;16.43;14.73;;;;;;;12.43;100.00;95495.75;4973957;28;20282;-59
2022/05/09 01:42:31;;;;;;;18.47;15.50;;;;;;;12.34;100.00;95503.69;4974163;28;20284;-59
2022/05/09 01:44:56;;;;;;;18.00;15.50;;;;;;;12.27;100.00;95501.81;4989938;28;20306;-59
2022/05/09 01:50:06;;;;;;;18.50;16.50;;;;;;;12.20;100.00;95498.41;4974829;28;20545;-59
2022/05/09 01:52:32;;;;;;;17.60;15.73;;;;;;;12.16;100.00;95495.72;4974186;28;20289;-66
2022/05/09 01:54:57;;;;;;;18.93;16.07;;;;;;;12.10;100.00;95499.31;4973378;28;20212;-62
2022/05/09 01:57:22;;;;;;;17.20;14.93;;;;;;;12.07;100.00;95506.38;4973732;28;20240;-63
2022/05/09 01:59:48;;;;;;;17.80;15.90;;;;;;;12.04;100.00;95490.00;4973855;28;20192;-62
2022/05/09 02:02:19;;;;;;;19.10;16.93;;;;;;;12.00;100.00;95495.53;4974634;28;20186;-63
2022/05/09 02:04:46;;;;;;;19.23;17.20;;;;;;;11.95;100.00;95497.94;4973741;28;20205;-63
2022/05/09 02:07:14;;;;;;;18.57;15.97;;;;;;;11.90;100.00;95501.09;4976907;28;20589;-63
2022/05/09 02:09:45;;;;;;;18.03;16.13;;;;;;;11.82;100.00;95488.69;4977075;28;20205;-61
2022/05/09 02:12:11;;;;;;;17.67;15.60;;;;;;;11.78;100.00;95487.97;4976559;28;20193;-58
2022/05/09 02:14:37;;;;;;;17.77;15.20;;;;;;;11.71;100.00;95493.50;4976517;28;20205;-66
2022/05/09 02:17:04;;;;;;;17.57;15.77;;;;;;;11.66;100.00;95496.69;4976691;28;20299;-67
2022/05/09 02:19:30;;;;;;;18.10;16.10;;;;;;;11.61;100.00;95494.41;4976771;28;20201;-66
2022/05/09 02:21:56;;;;;;;17.63;14.57;;;;;;;11.55;100.00;95496.00;4977289;28;20194;-67
2022/05/09 02:24:22;;;;;;;18.53;16.43;;;;;;;11.57;100.00;95494.41;4976525;28;20220;-66
2022/05/09 02:26:48;;;;;;;17.77;15.87;;;;;;;11.54;100.00;95489.75;4976552;28;20193;-66
2022/05/09 02:29:13;;;;;;;18.33;16.27;;;;;;;11.51;100.00;95495.28;4976485;28;20203;-61
2022/05/09 02:31:39;;;;;;;17.37;15.30;;;;;;;11.45;100.00;95496.88;4976452;28;20322;-67
2022/05/09 02:34:04;;;;;;;16.73;14.97;;;;;;;11.45;100.00;95491.41;4976721;28;20200;-68
2022/05/09 02:36:29;;;;;;;17.40;14.80;;;;;;;11.40;100.00;95489.13;4976640;28;20201;-67
2022/05/09 02:38:55;;;;;;;20.90;18.70;;;;;;;11.38;100.00;95496.94;4976382;28;20196;-68
2022/05/09 02:41:22;;;;;;;22.97;18.77;;;;;;;11.37;100.00;95485.22;4976336;28;20223;-67
2022/05/09 02:43:47;;;;;;;26.53;20.63;;;;;;;11.37;100.00;95493.44;4975998;28;20208;-67
2022/05/09 02:46:12;;;;;;;18.43;15.80;;;;;;;11.40;100.00;95492.63;4976226;28;20192;-67
2022/05/09 02:48:38;;;;;;;17.73;15.87;;;;;;;11.38;100.00;95486.81;4976880;28;20209;-61
2022/05/09 02:51:06;;;;;;;19.33;17.23;;;;;;;11.62;100.00;95476.81;4976011;28;20259;-62
2022/05/09 02:53:32;;;;;;;18.17;14.63;;;;;;;11.64;100.00;95483.44;4976127;28;20193;-61
2022/05/09 02:55:57;;;;;;;17.10;14.90;;;;;;;11.60;100.00;95473.66;4976579;28;20201;-61
2022/05/09 02:58:22;;;;;;;19.17;15.50;;;;;;;11.59;100.00;95485.81;4975967;28;20205;-61
2022/05/09 03:00:48;;;;;;;17.73;15.20;;;;;;;11.56;100.00;95481.16;4976442;28;20288;-61
2022/05/09 03:05:58;;;;;;;16.33;13.60;;;;;;;11.51;100.00;95481.59;4977253;28;20243;-62
2022/05/09 03:08:24;;;;;;;18.13;14.57;;;;;;;11.48;100.00;95482.41;4976459;28;20196;-58
2022/05/09 03:10:50;;;;;;;16.93;14.07;;;;;;;11.44;100.00;95495.34;4975981;28;20211;-58
2022/05/09 03:13:15;;;;;;;15.83;14.20;;;;;;;11.34;100.00;95493.47;4975557;28;20193;-58
2022/05/09 03:15:46;;;;;;;17.47;15.47;;;;;;;11.23;100.00;95490.06;4976276;28;20190;-58
2022/05/09 03:18:15;;;;;;;16.33;14.60;;;;;;;11.15;100.00;95494.81;4974487;28;20266;-58
2022/05/09 03:20:41;;;;;;;19.10;15.23;;;;;;;11.15;100.00;95494.06;4975620;28;20189;-58
2022/05/09 03:23:08;;;;;;;18.83;14.40;;;;;;;11.14;100.00;95495.25;4976035;28;20196;-58
2022/05/09 03:25:35;;;;;;;18.27;13.87;;;;;;;11.07;100.00;95498.03;4975502;28;20240;-58
2022/05/09 03:28:12;;;;;;;16.37;14.50;;;;;;;11.06;100.00;95485.53;4975490;28;20192;-61
2022/05/09 03:30:39;;;;;;;15.90;14.20;;;;;;;11.09;100.00;95485.50;4975898;28;20303;-62
2022/05/09 03:33:06;;;;;;;17.17;14.37;;;;;;;11.07;100.00;95492.56;4975338;28;20211;-61
2022/05/09 03:35:32;;;;;;;17.40;14.37;;;;;;;10.95;100.00;95490.31;4975633;28;20216;-61
2022/05/09 03:37:57;;;;;;;16.67;13.90;;;;;;;10.97;100.00;95487.97;4975790;28;20194;-62
2022/05/09 03:40:23;;;;;;;15.53;13.70;;;;;;;10.94;100.00;95489.53;4975480;28;20212;-61
2022/05/09 03:42:49;;;;;;;16.00;14.10;;;;;;;10.87;100.00;95494.28;4975393;28;20259;-59
2022/05/09 03:45:15;;;;;;;14.70;13.17;;;;;;;10.85;100.00;95491.19;4975714;28;20237;-61
2022/05/09 03:47:41;;;;;;;15.90;13.30;;;;;;;10.81;100.00;95490.44;4991529;28;20193;-61
2022/05/09 03:50:08;;;;;;;16.03;13.50;;;;;;;10.80;100.00;95502.53;4975233;28;20270;-61
2022/05/09 03:52:34;;;;;;;15.70;13.63;;;;;;;10.87;100.00;95492.34;4975139;28;20301;-61
2022/05/09 03:54:59;;;;;;;15.23;13.30;;;;;;;10.85;100.00;95496.66;4975084;28;20310;-62
2022/05/09 03:57:25;;;;;;;14.80;13.20;;;;;;;10.93;100.00;95503.59;4974830;28;20200;-61
2022/05/09 03:59:51;;;;;;;15.07;13.30;;;;;;;10.95;100.00;95498.50;4975209;28;20185;-61
2022/05/09 04:02:17;;;;;;;16.60;12.57;;;;;;;10.86;100.00;95503.66;4975323;28;20191;-56
2022/05/09 04:04:42;;;;;;;14.90;13.27;;;;;;;10.90;100.00;95493.47;4974972;28;20220;-59
2022/05/09 04:07:07;;;;;;;15.63;13.97;;;;;;;10.93;100.00;95503.59;4974978;28;20280;-59
2022/05/09 04:09:33;;;;;;;15.53;12.83;;;;;;;10.97;100.00;95504.34;4975132;28;20193;-59
2022/05/09 04:11:58;;;;;;;15.30;13.60;;;;;;;10.99;100.00;95507.44;4974830;28;20192;-59
2022/05/09 04:17:14;;;;;;;16.50;12.70;;;;;;;10.95;100.00;95517.63;4966004;28;20231;-59
2022/05/09 04:19:41;;;;;;;19.17;14.37;;;;;;;11.01;100.00;95513.28;4975705;28;20185;-52
2022/05/09 04:22:07;;;;;;;17.53;13.57;;;;;;;10.96;100.00;95521.94;4974827;28;20279;-59
2022/05/09 04:24:33;;;;;;;15.33;13.73;;;;;;;10.97;100.00;95518.00;4974669;28;20216;-59
2022/05/09 04:27:00;;;;;;;15.67;13.50;;;;;;;11.09;100.00;95523.78;4974389;28;20188;-60
2022/05/09 04:29:26;;;;;;;18.07;13.87;;;;;;;11.07;100.00;95528.84;4974403;28;20193;-59
2022/05/09 04:31:52;;;;;;;15.27;13.67;;;;;;;11.07;100.00;95530.81;4974594;28;20185;-59
2022/05/09 04:34:17;;;;;;;15.53;13.20;;;;;;;11.10;100.00;95525.31;4974289;28;20188;-59
2022/05/09 04:36:43;;;;;;;16.83;13.67;;;;;;;11.13;100.00;95534.66;4974736;28;20259;-59
2022/05/09 04:39:08;;;;;;;15.47;13.17;;;;;;;11.13;100.00;95534.66;4974336;28;20223;-63
2022/05/09 04:41:36;;;;;;;15.67;13.20;;;;;;;11.10;100.00;95540.94;4974277;28;20194;-65
2022/05/09 04:44:03;;;;;;;15.47;13.70;;;;;;;11.14;100.00;95537.00;4974147;28;20217;-65
2022/05/09 04:46:29;;;;;;;13.70;12.17;;;;;;;11.14;100.00;95544.44;4974554;28;20280;-67
2022/05/09 04:48:55;;;;;;;12.80;11.60;;;;;;;11.20;100.00;95549.06;4974348;28;20223;-67
2022/05/09 04:51:22;;;;;;;14.00;12.37;;;;;;;11.26;100.00;95538.47;4974673;28;20196;-65
2022/05/09 04:53:49;;;;;;;15.43;12.73;;;;;;;11.29;100.00;95548.59;4974175;28;20201;-68
2022/05/09 04:56:15;;;;;;;17.83;13.97;;;;;;;11.25;100.00;95542.41;4974593;28;20203;-59
2022/05/09 04:58:40;;;;;;;14.47;12.27;;;;;;;11.21;100.00;95541.63;4974634;28;20197;-60
2022/05/09 05:01:06;;;;;;;14.63;12.97;;;;;;;11.24;100.00;95547.06;4974057;28;20255;-59
2022/05/09 05:03:31;;;;;;;16.67;14.20;;;;;;;11.35;100.00;95552.44;4975065;28;20244;-60
2022/05/09 05:05:56;;;;;;;15.00;13.50;;;;;;;11.33;100.00;95554.81;4974111;28;20213;-59
2022/05/09 05:08:22;;;;;;;16.87;13.20;;;;;;;11.42;100.00;95557.84;4974548;28;20252;-59
2022/05/09 05:10:52;;;;;;;15.23;12.77;;;;;;;11.53;100.00;95561.25;4974076;28;20191;-59
2022/05/09 05:13:19;;;;;;;14.80;12.80;;;;;;;11.49;100.00;95555.06;4990778;28;20252;-59
2022/05/09 05:15:44;;;;;;;14.47;12.80;;;;;;;11.60;100.00;95558.47;4974378;28;20213;-59
2022/05/09 05:18:09;;;;;;;14.37;12.67;;;;;;;11.69;100.00;95551.38;4973966;28;20217;-52
2022/05/09 05:20:35;;;;;;;14.57;12.40;;;;;;;11.87;100.00;95548.47;4974211;28;20297;-49
2022/05/09 05:23:00;;;;;;;15.97;13.87;;;;;;;11.89;100.00;95557.03;4974182;28;20182;-52
2022/05/09 05:25:29;;;;;;;15.77;13.27;;;;;;;12.01;100.00;95556.50;4973549;28;20211;-54
2022/05/09 05:27:55;;;;;;;14.53;12.90;;;;;;;12.21;100.00;95560.19;4973451;28;20200;-55
2022/05/09 05:30:21;;;;;;;17.33;13.07;;;;;;;12.35;100.00;95565.50;4973889;28;20179;-56
2022/05/09 05:32:47;;;;;;;16.50;13.63;;;;;;;12.42;100.00;95570.91;4974258;28;20218;-65
2022/05/09 05:35:17;;;;;;;17.13;14.63;;;;;;;12.66;100.00;95576.06;4973867;28;20199;-63
2022/05/09 05:37:43;;;;;;;27.03;20.23;;;;;;;12.94;100.00;95580.38;4973666;28;20338;-69
2022/05/09 05:40:09;;;;;;;23.80;16.43;;;;;;;13.07;100.00;95578.63;4974951;28;20226;-65
2022/05/09 05:42:39;;;;;;;36.77;17.57;;;;;;;13.05;100.00;95597.47;4976815;28;20269;-68
2022/05/09 05:45:05;;;;;;;40.77;17.93;;;;;;;12.81;100.00;95593.84;4977097;28;20291;-64
2022/05/09 05:47:30;;;;;;;27.33;18.70;;;;;;;12.94;100.00;95602.28;4976873;28;20189;-65
2022/05/09 05:49:57;;;;;;;30.00;18.23;;;;;;;13.05;100.00;95597.47;4976882;28;20196;-66
2022/05/09 05:52:22;;;;;;;32.50;18.23;;;;;;;13.22;100.00;95599.16;4976714;28;20184;-64
2022/05/09 05:54:48;;;;;;;26.70;17.53;;;;;;;13.29;100.00;95607.28;4976978;28;20202;-64
2022/05/09 05:57:20;;;;;;;29.97;18.90;;;;;;;13.20;100.00;95609.78;4977728;28;20215;-63
2022/05/09 06:00:19;;;;;;;28.03;19.03;;;;;;;13.16;100.00;95615.31;4976775;28;20192;-64
2022/05/09 06:02:45;;;;;;;29.63;19.90;;;;;;;13.20;100.00;95615.25;4972906;28;20199;-62
2022/05/09 06:05:13;;;;;;;31.90;19.43;;;;;;;13.28;100.00;95622.19;4976569;28;20295;-63
2022/05/09 06:07:39;;;;;;;26.37;19.33;;;;;;;13.43;100.00;95623.53;4976928;28;20202;-62
2022/05/09 06:10:05;;;;;;;27.93;20.30;;;;;;;13.59;100.00;95623.69;4976609;28;20207;-61
2022/05/09 06:12:31;;;;;;;30.50;20.50;;;;;;;13.58;100.00;95630.34;4976388;28;20199;-62
2022/05/09 06:17:40;;;;;;;26.63;20.80;;;;;;;14.12;100.00;95634.53;4977647;28;20199;-64
2022/05/09 06:20:11;;;;;;;28.23;19.50;;;;;;;14.31;100.00;95644.78;4975788;28;20192;-61
2022/05/09 06:22:38;;;;;;;28.13;20.93;;;;;;;14.46;100.00;95650.81;4976374;28;20196;-62
2022/05/09 06:25:06;;;;;;;30.63;21.40;;;;;;;14.51;100.00;95656.59;4976866;28;20208;-63
2022/05/09 06:27:32;;;;;;;26.23;20.57;;;;;;;14.69;100.00;95659.00;4976668;28;20195;-63
2022/05/09 06:30:00;;;;;;;23.70;20.03;;;;;;;14.96;100.00;95674.13;4977418;28;20223;-59
2022/05/09 06:32:25;;;;;;;25.37;21.30;;;;;;;14.70;100.00;95683.31;4976255;28;20279;-63
2022/05/09 06:34:52;;;;;;;26.13;21.93;;;;;;;14.85;100.00;95679.09;4976983;28;20235;-63
2022/05/09 06:37:17;;;;;;;23.17;19.63;;;;;;;15.44;100.00;95679.81;4976324;28;20180;-63
2022/05/09 06:39:43;;;;;;;24.03;20.73;;;;;;;15.80;100.00;95694.31;4976262;28;20196;-64
2022/05/09 06:42:08;;;;;;;25.20;20.73;;;;;;;16.08;100.00;95712.94;4976096;28;20184;-63
2022/05/09 06:44:35;;;;;;;23.63;20.40;;;;;;;16.44;100.00;95719.13;4976773;28;20208;-63
2022/05/09 06:47:01;;;;;;;23.57;19.63;;;;;;;16.61;100.00;95732.91;4975728;28;20201;-65
2022/05/09 06:49:27;;;;;;;22.97;20.33;;;;;;;16.64;100.00;95745.84;4976564;28;20191;-65
2022/05/09 06:51:52;;;;;;;23.17;20.73;;;;;;;16.57;100.00;95757.03;4976261;28;20193;-65
2022/05/09 06:54:20;;;;;;;21.50;19.23;;;;;;;17.60;100.00;95756.56;4976065;28;20242;-66
2022/05/09 06:56:45;;;;;;;21.60;19.30;;;;;;;18.29;100.00;95774.97;4976120;28;20199;-65
2022/05/09 06:59:11;;;;;;;20.17;18.07;;;;;;;18.50;100.00;95790.91;4975737;28;20189;-65
2022/05/09 07:01:37;;;;;;;22.20;19.80;;;;;;;18.51;100.00;95803.53;4975851;28;20180;-65
2022/05/09 07:04:03;;;;;;;21.13;18.87;;;;;;;18.76;100.00;95814.56;4975678;28;20220;-66
2022/05/09 07:06:28;;;;;;;21.73;19.37;;;;;;;18.37;100.00;95831.63;4976870;28;20195;-60
2022/05/09 07:08:54;;;;;;;22.10;18.50;;;;;;;18.80;100.00;95837.34;4975971;28;20188;-62
2022/05/09 07:11:19;;;;;;;19.10;17.17;;;;;;;19.54;100.00;95830.06;4975930;28;20203;-62
2022/05/09 07:13:44;;;;;;;19.90;17.87;;;;;;;20.40;100.00;95835.53;4975548;28;20243;-62
2022/05/09 07:16:11;;;;;;;19.37;17.50;;;;;;;21.03;100.00;95871.09;4975911;28;20259;-62
2022/05/09 07:18:38;;;;;;;19.00;17.17;;;;;;;18.89;100.00;95874.22;4975750;28;20195;-62
2022/05/09 07:21:05;;;;;;;18.73;16.87;;;;;;;20.00;100.00;95867.19;4975639;28;20201;-62
2022/05/09 07:23:30;;;;;;;18.83;17.03;;;;;;;20.08;100.00;95880.34;4975377;28;20220;-62
2022/05/09 07:25:56;;;;;;;18.60;16.70;;;;;;;19.77;100.00;95892.59;4975542;28;20234;-72
2022/05/09 07:28:21;;;;;;;18.47;16.70;;;;;;;21.35;100.00;95898.34;4975656;28;20271;-75
2022/05/09 07:30:48;;;;;;;18.60;16.73;;;;;;;21.64;100.00;95907.78;4975515;28;20221;-76
2022/05/09 07:33:15;;;;;;;17.63;15.83;;;;;;;22.01;100.00;95944.78;4975808;28;20184;-79
2022/05/09 07:35:42;;;;;;;19.53;17.63;;;;;;;20.35;100.00;95932.47;4975373;28;20188;-73
2022/05/09 07:38:08;;;;;;;21.93;19.83;;;;;;;18.58;100.00;95930.56;4975288;28;20188;-70
2022/05/09 07:40:33;;;;;;;20.63;18.73;;;;;;;18.60;100.00;95900.44;4975291;28;20283;-71
2022/05/09 07:42:59;;;;;;;20.00;18.10;;;;;;;19.90;100.00;95891.31;4974975;28;20252;-71
2022/05/09 07:45:24;;;;;;;19.80;17.90;;;;;;;19.99;100.00;95919.09;4975745;28;20203;-63
2022/05/09 07:47:49;;;;;;;19.57;17.67;;;;;;;20.08;100.00;95910.88;4975317;28;20188;-61
2022/05/09 07:50:17;;;;;;;19.80;17.90;;;;;;;20.77;100.00;95928.88;4974948;28;20189;-61
2022/05/09 07:52:42;;;;;;;19.53;17.63;;;;;;;19.54;100.00;95935.38;4974712;28;20192;-63
2022/05/09 07:55:10;;;;;;;21.03;18.93;;;;;;;20.86;100.00;95909.44;4975013;28;20247;-62
2022/05/09 07:57:35;;;;;;;19.30;17.50;;;;;;;22.58;100.00;95931.91;4975173;28;20188;-62
2022/05/09 08:00:00;;;;;;;19.27;17.47;;;;;;;23.44;100.00;95953.25;4974744;28;20197;-66
2022/05/09 08:02:26;;;;;;;19.50;17.60;;;;;;;22.05;100.00;95962.88;4974327;28;20188;-65
2022/05/09 08:04:51;;;;;;;18.07;16.47;;;;;;;21.93;100.00;95976.94;4975771;28;20239;-70
2022/05/09 08:07:17;;;;;;;19.40;17.70;;;;;;;19.87;100.00;95974.59;4975359;28;20199;-69
2022/05/09 08:09:42;;;;;;;19.27;17.57;;;;;;;21.38;100.00;95951.00;4974845;28;20201;-69
2022/05/09 08:12:09;;;;;;;19.03;17.33;;;;;;;20.63;100.00;95959.94;4974891;28;20196;-68
2022/05/09 08:14:34;;;;;;;17.50;15.83;;;;;;;21.42;100.00;95954.41;4975673;28;20196;-68
2022/05/09 08:17:02;;;;;;;19.10;17.40;;;;;;;21.49;100.00;95959.66;4974684;28;20275;-67
2022/05/09 08:19:29;;;;;;;17.33;15.73;;;;;;;20.57;100.00;95958.97;4975741;28;20189;-59
2022/05/09 08:21:55;;;;;;;17.03;15.43;;;;;;;21.83;100.00;95951.13;4974921;28;20200;-58
2022/05/09 08:24:20;;;;;;;16.07;14.67;;;;;;;20.60;100.00;95960.84;4974576;28;20212;-58
2022/05/09 08:26:45;;;;;;;15.03;13.70;;;;;;;21.50;100.00;95964.03;4975200;28;20199;-59
2022/05/09 08:29:11;;;;;;;16.80;15.10;;;;;;;20.82;100.00;95971.91;4974631;28;20200;-59
2022/05/09 08:31:37;;;;;;;15.27;13.97;;;;;;;21.12;100.00;95974.69;4974829;28;20626;-59
2022/05/09 08:34:02;;;;;;;16.67;14.97;;;;;;;20.68;100.00;95973.22;4974441;28;20208;-59
2022/05/09 08:36:46;;;;;;;15.30;13.90;;;;;;;21.36;100.00;95961.03;4974507;28;20231;-66
2022/05/09 08:39:13;;;;;;;15.47;14.07;;;;;;;20.53;100.00;95961.13;4974713;28;20250;-58
2022/05/09 08:41:56;;;;;;;17.77;16.00;;;;;;;19.78;100.00;95958.69;4975072;28;20177;-60
2022/05/09 08:44:40;;;;;;;17.30;15.60;;;;;;;20.28;100.00;95939.06;4974409;28;20208;-60
2022/05/09 08:47:27;;;;;;;16.13;14.57;;;;;;;20.73;100.00;95952.44;4974245;28;20204;-59
2022/05/09 08:50:00;;;;;;;17.67;14.40;;;;;;;20.98;100.00;95953.03;4975067;28;20196;-60
2022/05/09 08:52:31;;;;;;;14.53;13.23;;;;;;;21.31;100.00;95959.63;4974202;28;20279;-61
2022/05/09 08:54:56;;;;;;;15.23;13.77;;;;;;;21.40;100.00;95961.66;4974717;28;20196;-62
2022/05/09 08:57:39;;;;;;;14.40;12.87;;;;;;;21.86;100.00;95955.72;4974699;28;20212;-68
2022/05/09 09:00:12;;;;;;;14.90;13.50;;;;;;;21.73;100.00;95973.81;4974584;28;20270;-68
2022/05/09 09:02:51;;;;;;;14.77;12.70;;;;;;;22.56;100.00;95968.56;4974482;28;20216;-69
2022/05/09 09:05:25;;;;;;;14.03;12.57;;;;;;;21.83;100.00;95978.94;4974483;28;20246;-69
2022/05/09 09:08:04;;;;;;;13.57;12.20;;;;;;;21.71;100.00;95981.81;4974113;28;20223;-70
2022/05/09 09:10:39;;;;;;;12.70;11.50;;;;;;;20.36;100.00;95973.63;4973929;28;20202;-70
2022/05/09 09:13:28;;;;;;;13.27;11.73;;;;;;;20.41;100.00;95961.19;4974994;28;20219;-63
2022/05/09 09:16:18;;;;;;;12.73;11.53;;;;;;;20.81;100.00;95965.59;4972989;28;20222;-62
2022/05/09 09:18:56;;;;;;;12.17;11.07;;;;;;;21.63;100.00;95974.97;4973752;28;20188;-60
2022/05/09 09:22:09;;;;;;;11.07;10.07;;;;;;;22.61;100.00;95981.09;4973904;28;20184;-59
2022/05/09 09:24:48;;;;;;;10.80;9.80;;;;;;;22.73;99.59;96002.41;4965224;28;20318;-59
2022/05/09 09:27:40;;;;;;;12.23;11.03;;;;;;;21.88;96.98;96003.34;4990003;28;20259;-59
2022/05/09 09:30:12;;;;;;;11.20;10.10;;;;;;;21.91;100.00;95990.53;4974333;28;20193;-60
2022/05/09 09:32:43;;;;;;;10.50;9.53;;;;;;;22.83;99.65;95982.41;4974482;28;20189;-59
2022/05/09 09:35:18;;;;;;;11.80;10.00;;;;;;;22.34;96.77;95985.44;4974012;28;20198;-68
2022/05/09 09:37:55;;;;;;;11.20;10.27;;;;;;;22.46;98.20;95995.63;4973707;28;20241;-67
2022/05/09 09:40:21;;;;;;;11.50;10.40;;;;;;;23.35;96.86;95975.59;4974278;28;20199;-68
2022/05/09 09:42:54;;;;;;;10.80;9.80;;;;;;;23.10;95.59;95984.34;4973788;28;20196;-68
2022/05/09 09:45:28;;;;;;;10.60;9.67;;;;;;;21.82;98.46;95985.72;4974031;28;20216;-67
2022/05/09 09:48:10;;;;;;;10.53;9.50;;;;;;;22.43;94.38;95993.78;4973702;28;20202;-66
2022/05/09 09:50:37;;;;;;;10.33;9.43;;;;;;;23.51;91.49;95989.94;4989631;28;20188;-67
2022/05/09 09:53:03;;;;;;;9.17;8.27;;;;;;;23.43;90.89;95990.75;4973552;28;20274;-60
2022/05/09 09:55:33;;;;;;;9.93;8.93;;;;;;;23.56;89.54;96033.91;4974673;28;20185;-62
2022/05/09 09:58:27;;;;;;;10.33;9.43;;;;;;;22.66;90.42;96061.22;4989438;28;20192;-62
2022/05/09 10:01:12;;;;;;;10.33;8.70;;;;;;;23.92;88.26;96060.84;4973623;28;20200;-62
2022/05/09 10:03:44;;;;;;;8.83;8.10;;;;;;;23.07;86.35;96054.97;4973827;28;20189;-63
2022/05/09 10:06:17;;;;;;;8.50;7.70;;;;;;;23.55;87.23;96056.69;4973457;28;20255;-62
2022/05/09 10:08:44;;;;;;;8.17;7.50;;;;;;;23.71;83.20;96056.31;4973340;28;20292;-61
2022/05/09 10:11:20;;;;;;;8.27;7.47;;;;;;;23.74;81.63;96049.81;4973561;28;20218;-61
2022/05/09 10:13:49;;;;;;;8.10;7.40;;;;;;;23.86;78.29;96046.00;4974118;28;20188;-63
2022/05/09 10:16:41;;;;;;;7.60;6.70;;;;;;;23.59;76.97;96048.91;4973146;28;20284;-63
2022/05/09 10:19:12;;;;;;;8.53;7.23;;;;;;;22.95;81.42;96047.56;4973623;28;20197;-63
2022/05/09 10:24:47;;;;;;;8.53;7.80;;;;;;;23.27;79.62;96052.47;4974354;28;20219;-63
2022/05/09 10:27:27;;;;;;;9.00;8.20;;;;;;;23.47;76.61;96042.31;4975364;28;20243;-62
2022/05/09 10:30:02;;;;;;;9.70;7.50;;;;;;;23.77;72.67;96048.84;4976892;28;20231;-61
2022/05/09 10:33:13;;;;;;;8.00;7.20;;;;;;;23.05;77.64;96043.53;4976970;28;20188;-61
2022/05/09 10:35:47;;;;;;;8.73;7.87;;;;;;;23.05;74.19;96058.22;4954869;28;20204;-61
2022/05/09 10:38:28;;;;;;;9.00;8.10;;;;;;;23.19;74.13;96043.63;4977737;28;20255;-61
2022/05/09 10:40:59;;;;;;;7.83;7.23;;;;;;;22.23;81.89;96040.03;4976802;28;20220;-61
2022/05/09 10:43:46;;;;;;;8.80;7.93;;;;;;;22.70;79.94;96045.13;4976662;28;20242;-61
2022/05/09 10:46:13;;;;;;;9.53;8.70;;;;;;;22.39;83.60;96037.69;4976535;28;20249;-60
2022/05/09 10:49:05;;;;;;;9.50;8.20;;;;;;;22.51;83.71;96024.91;4977230;28;20227;-68
2022/05/09 10:51:40;;;;;;;8.10;7.40;;;;;;;22.79;79.06;96031.97;4976585;28;20227;-72
2022/05/09 10:54:08;;;;;;;8.13;7.33;;;;;;;22.76;77.33;96023.78;4976211;28;20199;-69
2022/05/09 10:56:41;;;;;;;8.50;7.73;;;;;;;22.85;77.43;96032.09;4976101;28;20247;-71
2022/05/09 10:59:10;;;;;;;9.47;8.57;;;;;;;22.14;79.75;96021.31;4976215;28;20192;-70
2022/05/09 11:01:44;;;;;;;8.37;7.70;;;;;;;21.78;84.33;96024.03;4976778;28;20279;-70
2022/05/09 11:04:10;;;;;;;8.67;7.97;;;;;;;22.71;82.12;96016.03;4992349;28;20205;-60
2022/05/09 11:06:43;;;;;;;9.27;8.37;;;;;;;23.12;79.18;96009.75;4975851;28;20185;-61
2022/05/09 11:09:46;;;;;;;8.70;8.00;;;;;;;22.59;82.09;96005.84;4975760;28;20279;-60
2022/05/09 11:12:37;;;;;;;9.17;8.37;;;;;;;22.52;82.29;96006.16;4975820;28;20192;-61
2022/05/09 11:15:40;;;;;;;8.73;7.93;;;;;;;21.38;86.64;96001.03;4975390;28;20192;-60
2022/05/09 11:18:25;;;;;;;8.60;7.90;;;;;;;22.37;86.90;95992.84;4959033;28;20248;-62
2022/05/09 11:21:25;;;;;;;9.17;8.37;;;;;;;22.14;85.07;95992.69;4976128;28;20205;-61
2022/05/09 11:24:08;;;;;;;9.27;8.40;;;;;;;22.56;83.20;95987.28;4991805;28;20188;-70
2022/05/09 11:26:46;;;;;;;9.57;8.63;;;;;;;23.26;83.01;95978.44;4991721;28;20242;-61
2022/05/09 11:29:24;;;;;;;8.40;7.70;;;;;;;23.14;78.47;95980.16;4976166;28;20227;-61
2022/05/09 11:32:10;;;;;;;9.07;8.37;;;;;;;23.12;79.87;95977.06;4975402;28;20246;-61
2022/05/09 11:34:54;;;;;;;8.93;8.03;;;;;;;22.56;83.08;95976.13;4975898;28;20260;-60
2022/05/09 11:38:13;;;;;;;8.53;7.73;;;;;;;22.92;80.18;95968.47;4975103;28;20195;-60